Time;durP1;ratioP1;P1;durP2;ratioP2;P2;SDS_P1;SDS_P2;PMS_P1;PMS_P2;Temp;Humidity;BMP_temperature;BMP_pressure;BME280_temperature;BME280_humidity;BME280_pressure;Samples;Min_cycle;Max_cycle;Signal;HPM_P1;HPM_P2
2022/01/31 00:00:54;;;;;;;20.07;4.10;;;;;;;2.51;51.76;94765.38;5098950;28;20288;-63
2022/01/31 00:03:20;;;;;;;14.93;4.00;;;;;;;2.56;51.28;94757.25;5098029;28;20273;-63
2022/01/31 00:05:46;;;;;;;10.60;3.67;;;;;;;2.46;51.33;94754.50;5098074;28;20224;-63
2022/01/31 00:08:12;;;;;;;15.70;3.50;;;;;;;2.50;51.38;94765.50;5100371;28;20247;-63
2022/01/31 00:10:37;;;;;;;15.83;3.27;;;;;;;2.53;51.21;94773.88;5101027;28;20216;-64
2022/01/31 00:15:29;;;;;;;16.23;3.93;;;;;;;2.61;50.83;94763.78;5097112;28;20192;-63
2022/01/31 00:17:55;;;;;;;8.83;3.77;;;;;;;2.64;50.64;94773.94;5101662;28;20234;-64
2022/01/31 00:20:20;;;;;;;16.33;3.70;;;;;;;2.60;50.59;94776.88;5098937;28;20219;-65
2022/01/31 00:22:46;;;;;;;11.63;3.40;;;;;;;2.61;50.74;94784.56;5096757;28;20215;-64
2022/01/31 00:25:13;;;;;;;11.13;3.87;;;;;;;2.57;50.88;94777.94;5100595;28;20207;-64
2022/01/31 00:27:39;;;;;;;13.80;4.07;;;;;;;2.61;51.07;94781.94;5092649;28;20254;-65
2022/01/31 00:30:06;;;;;;;11.00;2.73;;;;;;;2.65;50.50;94777.41;5098417;28;20212;-65
2022/01/31 00:32:31;;;;;;;10.97;3.10;;;;;;;2.72;50.60;94775.16;5099349;28;20219;-63
2022/01/31 00:34:58;;;;;;;15.70;3.60;;;;;;;2.59;50.56;94760.50;5097453;28;20216;-63
2022/01/31 00:37:24;;;;;;;13.70;3.33;;;;;;;2.56;50.74;94755.50;5094004;28;20224;-65
2022/01/31 00:39:50;;;;;;;17.60;3.37;;;;;;;2.54;50.88;94764.31;5101789;28;20240;-63
2022/01/31 00:42:15;;;;;;;13.30;3.07;;;;;;;2.53;50.75;94771.28;5098511;28;20208;-64
2022/01/31 00:44:53;;;;;;;10.97;3.13;;;;;;;2.58;50.73;94771.78;5087869;28;20216;-63
2022/01/31 00:47:23;;;;;;;15.53;3.77;;;;;;;2.58;51.07;94768.38;5078579;28;20213;-63
2022/01/31 00:49:51;;;;;;;14.10;3.43;;;;;;;2.61;50.81;94779.34;5076881;28;20263;-63
2022/01/31 00:52:17;;;;;;;17.97;3.70;;;;;;;2.52;51.19;94771.41;5080484;28;20224;-64
2022/01/31 00:54:43;;;;;;;13.10;3.80;;;;;;;2.43;51.47;94785.84;5075181;28;20235;-63
2022/01/31 00:57:09;;;;;;;16.30;3.67;;;;;;;2.40;51.84;94778.28;5075168;28;20209;-63
2022/01/31 00:59:34;;;;;;;13.80;3.27;;;;;;;2.45;51.18;94778.78;5076732;28;20316;-60
2022/01/31 01:02:00;;;;;;;15.80;4.07;;;;;;;2.57;50.95;94788.31;5072612;28;20221;-65
2022/01/31 01:04:25;;;;;;;16.20;2.93;;;;;;;2.57;50.61;94785.72;5075541;28;20217;-63
2022/01/31 01:06:51;;;;;;;14.57;3.10;;;;;;;2.49;50.69;94800.19;5075153;28;20300;-63
2022/01/31 01:09:17;;;;;;;17.30;3.77;;;;;;;2.45;50.85;94791.75;5080523;28;20246;-64
2022/01/31 01:11:42;;;;;;;14.73;3.27;;;;;;;2.49;50.12;94782.84;5073201;28;20220;-66
2022/01/31 01:14:08;;;;;;;11.20;2.93;;;;;;;2.45;50.88;94778.78;5074538;28;20291;-63
2022/01/31 01:16:34;;;;;;;13.60;3.07;;;;;;;2.59;50.52;94798.56;5079168;28;20201;-65
2022/01/31 01:18:59;;;;;;;10.53;3.30;;;;;;;2.67;49.93;94788.47;5075573;28;20223;-63
2022/01/31 01:21:25;;;;;;;13.10;3.30;;;;;;;2.50;50.16;94776.69;5075808;28;20272;-63
2022/01/31 01:23:51;;;;;;;18.60;2.93;;;;;;;2.36;50.15;94743.13;5092072;28;20243;-63
2022/01/31 01:26:18;;;;;;;18.83;3.23;;;;;;;2.47;50.39;94779.53;5078645;28;20227;-63
2022/01/31 01:28:45;;;;;;;10.40;3.20;;;;;;;2.42;50.35;94781.59;5075995;28;20224;-65
2022/01/31 01:31:10;;;;;;;10.57;3.53;;;;;;;2.40;50.17;94791.25;5075147;28;20228;-64
2022/01/31 01:33:39;;;;;;;9.47;3.27;;;;;;;2.45;50.22;94783.97;5077366;28;20198;-63
2022/01/31 01:36:06;;;;;;;12.23;3.20;;;;;;;2.48;49.84;94768.19;5073813;28;20410;-63
2022/01/31 01:38:32;;;;;;;11.87;2.90;;;;;;;2.56;49.34;94772.84;5074310;28;20216;-62
2022/01/31 01:40:59;;;;;;;16.17;3.10;;;;;;;2.54;49.70;94772.13;5078028;28;20328;-63
2022/01/31 01:43:26;;;;;;;13.40;3.60;;;;;;;2.50;49.80;94776.69;5072544;28;20237;-63
2022/01/31 01:45:56;;;;;;;9.47;2.70;;;;;;;2.45;50.29;94773.59;5074620;28;20307;-64
2022/01/31 01:48:21;;;;;;;14.77;3.50;;;;;;;2.47;50.52;94771.72;5079371;28;20227;-63
2022/01/31 01:50:48;;;;;;;22.50;3.73;;;;;;;2.51;50.13;94760.19;5072526;28;20217;-63
2022/01/31 01:53:14;;;;;;;9.93;3.00;;;;;;;2.46;49.55;94764.91;5076781;28;20205;-63
2022/01/31 01:55:42;;;;;;;10.93;3.20;;;;;;;2.47;49.91;94781.28;5082290;28;20224;-63
2022/01/31 01:58:14;;;;;;;8.57;2.40;;;;;;;2.39;49.80;94769.69;5098480;28;20212;-65
2022/01/31 02:00:49;;;;;;;13.43;3.40;;;;;;;2.47;49.92;94786.47;5094786;28;20197;-63
2022/01/31 02:03:15;;;;;;;11.37;2.80;;;;;;;2.63;49.28;94782.69;5094069;28;20199;-64
2022/01/31 02:05:41;;;;;;;13.80;3.37;;;;;;;2.46;50.09;94780.47;5099830;28;20335;-64
2022/01/31 02:08:07;;;;;;;11.07;2.77;;;;;;;2.54;50.13;94787.69;5094964;28;20253;-63
2022/01/31 02:10:32;;;;;;;15.07;2.80;;;;;;;2.55;50.22;94777.22;5096242;28;20230;-62
2022/01/31 02:13:06;;;;;;;9.93;2.97;;;;;;;2.43;50.20;94775.47;5088545;28;20326;-63
2022/01/31 02:15:32;;;;;;;13.30;3.40;;;;;;;2.43;50.09;94772.88;5091019;28;20204;-63
2022/01/31 02:17:57;;;;;;;9.63;2.93;;;;;;;2.46;49.41;94764.91;5094786;28;20203;-64
2022/01/31 02:20:23;;;;;;;6.80;2.43;;;;;;;2.44;49.84;94779.75;5108166;28;20228;-64
2022/01/31 02:22:49;;;;;;;12.43;2.93;;;;;;;2.51;49.11;94788.72;5094038;28;20243;-64
2022/01/31 02:25:15;;;;;;;10.93;2.90;;;;;;;2.50;48.75;94771.50;5094869;28;20243;-63
2022/01/31 02:27:41;;;;;;;13.63;3.20;;;;;;;2.51;48.71;94782.72;5095230;28;20205;-62
2022/01/31 02:30:09;;;;;;;14.23;2.50;;;;;;;2.40;49.28;94771.31;5099497;28;20189;-64
2022/01/31 02:32:35;;;;;;;12.93;2.80;;;;;;;2.47;49.00;94779.53;5097368;28;20223;-63
2022/01/31 02:35:01;;;;;;;15.37;3.13;;;;;;;2.38;48.98;94768.03;5098309;28;20214;-64
2022/01/31 02:37:26;;;;;;;13.87;3.00;;;;;;;2.46;49.10;94787.41;5095316;28;20235;-62
2022/01/31 02:39:52;;;;;;;10.43;2.77;;;;;;;2.43;48.97;94781.50;5098366;28;20220;-62
2022/01/31 02:42:17;;;;;;;8.03;2.63;;;;;;;2.48;48.41;94791.53;5094103;28;20267;-63
2022/01/31 02:44:45;;;;;;;13.40;2.50;;;;;;;2.46;48.84;94790.84;5092968;28;20229;-62
2022/01/31 02:47:15;;;;;;;12.73;2.60;;;;;;;2.51;48.02;94795.69;5098967;28;20231;-63
2022/01/31 02:49:53;;;;;;;12.90;2.50;;;;;;;2.51;48.30;94788.72;5098722;28;20239;-62
2022/01/31 02:52:19;;;;;;;8.90;2.67;;;;;;;2.40;48.61;94791.25;5093730;28;20231;-62
2022/01/31 02:54:45;;;;;;;9.67;2.30;;;;;;;2.47;48.61;94786.47;5102425;28;20227;-63
2022/01/31 02:57:10;;;;;;;7.97;2.30;;;;;;;2.30;49.07;94779.88;5101237;28;20228;-62
2022/01/31 02:59:36;;;;;;;12.33;3.10;;;;;;;2.29;48.69;94786.81;5100845;28;20220;-62
2022/01/31 03:02:03;;;;;;;8.60;2.63;;;;;;;2.40;48.42;94799.88;5099779;28;20228;-64
2022/01/31 03:04:29;;;;;;;10.77;2.47;;;;;;;2.44;48.21;94792.72;5100138;28;20220;-62
2022/01/31 03:06:55;;;;;;;8.40;2.60;;;;;;;2.36;48.45;94785.47;5098542;28;20228;-61
2022/01/31 03:09:21;;;;;;;10.27;2.77;;;;;;;2.57;48.18;94801.28;5100229;28;20191;-63
2022/01/31 03:11:47;;;;;;;8.53;2.47;;;;;;;2.44;47.67;94784.94;5101532;28;20225;-64
2022/01/31 03:14:15;;;;;;;10.40;2.53;;;;;;;2.40;47.74;94793.84;5092364;28;20237;-62
2022/01/31 03:16:43;;;;;;;8.17;2.43;;;;;;;2.40;48.00;94791.25;5092717;28;20217;-63
2022/01/31 03:19:09;;;;;;;7.03;2.43;;;;;;;2.40;48.40;94792.09;5100706;28;20216;-62
2022/01/31 03:21:35;;;;;;;9.97;2.73;;;;;;;2.45;48.47;94796.97;5103147;28;20203;-62
2022/01/31 03:24:01;;;;;;;10.33;2.80;;;;;;;2.33;48.82;94797.84;5100007;28;20281;-62
2022/01/31 03:26:27;;;;;;;10.70;2.83;;;;;;;2.32;49.44;94784.00;5099701;28;20219;-63
2022/01/31 03:28:53;;;;;;;9.90;2.77;;;;;;;2.42;49.19;94782.44;5094734;28;20222;-64
2022/01/31 03:31:20;;;;;;;9.77;2.70;;;;;;;2.41;49.40;94785.16;5101082;28;20238;-63
2022/01/31 03:33:47;;;;;;;7.40;2.50;;;;;;;2.30;49.38;94775.53;5097415;28;20216;-64
2022/01/31 03:36:12;;;;;;;13.13;2.87;;;;;;;2.23;49.52;94774.28;5094732;28;20207;-64
2022/01/31 03:38:40;;;;;;;13.90;2.80;;;;;;;2.30;49.48;94779.88;5100932;28;20223;-63
2022/01/31 03:41:11;;;;;;;11.17;2.17;;;;;;;2.27;48.93;94782.69;5097662;28;20228;-62
2022/01/31 03:43:36;;;;;;;9.70;2.23;;;;;;;2.24;49.06;94778.53;5100332;28;20273;-63
2022/01/31 03:46:03;;;;;;;4.63;2.30;;;;;;;2.24;48.78;94786.31;5103365;28;20282;-64
2022/01/31 03:48:29;;;;;;;5.63;2.13;;;;;;;2.29;48.43;94778.22;5099061;28;20228;-62
2022/01/31 03:50:56;;;;;;;6.97;2.47;;;;;;;2.27;48.46;94787.88;5097640;28;20258;-64
2022/01/31 03:53:21;;;;;;;7.67;2.30;;;;;;;2.22;48.74;94780.44;5104259;28;20286;-64
2022/01/31 03:55:47;;;;;;;11.10;2.37;;;;;;;2.30;48.97;94790.25;5094269;28;20242;-66
2022/01/31 03:58:12;;;;;;;12.37;2.77;;;;;;;2.37;48.69;94788.88;5096326;28;20246;-63
2022/01/31 04:00:38;;;;;;;10.07;2.57;;;;;;;2.46;48.44;94787.41;5096951;28;20283;-64
2022/01/31 04:03:04;;;;;;;10.67;2.67;;;;;;;2.33;48.72;94790.06;5095483;28;20220;-64
2022/01/31 04:05:31;;;;;;;9.23;3.07;;;;;;;2.29;48.62;94779.03;5098438;28;20246;-63
2022/01/31 04:07:57;;;;;;;12.50;3.00;;;;;;;2.30;49.22;94790.25;5092011;28;20234;-63
2022/01/31 04:10:24;;;;;;;10.00;2.50;;;;;;;2.35;49.03;94789.00;5099965;28;20231;-63
2022/01/31 04:12:50;;;;;;;8.97;3.03;;;;;;;2.21;48.74;94795.13;5096312;28;20236;-63
2022/01/31 04:15:15;;;;;;;8.70;2.47;;;;;;;2.05;48.67;94775.56;5098506;28;20250;-64
2022/01/31 04:17:41;;;;;;;5.43;2.07;;;;;;;2.24;48.73;94811.44;5095016;28;20292;-62
2022/01/31 04:20:08;;;;;;;11.20;3.13;;;;;;;2.20;48.50;94803.88;5096168;28;20227;-64
2022/01/31 04:22:38;;;;;;;7.43;2.60;;;;;;;2.27;48.82;94793.88;5100294;28;20266;-63
2022/01/31 04:25:06;;;;;;;8.93;2.90;;;;;;;2.20;48.89;94797.84;5094630;28;20236;-63
2022/01/31 04:27:44;;;;;;;9.60;2.70;;;;;;;2.13;48.65;94800.03;5098119;28;20220;-63
2022/01/31 04:30:14;;;;;;;9.50;2.90;;;;;;;1.98;49.08;94791.56;5099996;28;20208;-64
2022/01/31 04:32:39;;;;;;;7.83;2.97;;;;;;;2.05;49.30;94796.31;5094722;28;20291;-64
2022/01/31 04:35:05;;;;;;;7.07;2.63;;;;;;;2.00;49.38;94796.63;5097572;28;20228;-62
2022/01/31 04:37:31;;;;;;;10.40;3.10;;;;;;;1.87;49.87;94796.66;5094718;28;20349;-64
2022/01/31 04:39:56;;;;;;;10.90;2.70;;;;;;;1.83;50.33;94790.00;5095254;28;20225;-63
2022/01/31 04:42:24;;;;;;;15.03;3.13;;;;;;;1.81;50.83;94793.63;5083084;28;20287;-62
2022/01/31 04:44:49;;;;;;;7.97;3.00;;;;;;;1.79;50.90;94785.13;5077723;28;20243;-63
2022/01/31 04:47:14;;;;;;;9.20;3.07;;;;;;;1.82;51.16;94790.09;5094922;28;20220;-62
2022/01/31 04:49:40;;;;;;;12.40;2.97;;;;;;;1.85;51.58;94787.31;5098230;28;20239;-63
2022/01/31 04:52:06;;;;;;;10.10;2.90;;;;;;;1.76;51.63;94787.00;5099123;28;20272;-63
2022/01/31 04:54:31;;;;;;;11.37;2.83;;;;;;;1.65;51.15;94768.75;5097151;28;20228;-63
2022/01/31 04:56:57;;;;;;;7.90;2.57;;;;;;;1.67;51.80;94784.19;5094944;28;20282;-63
2022/01/31 04:59:22;;;;;;;8.50;2.67;;;;;;;1.58;51.74;94784.81;5096153;28;20212;-63
2022/01/31 05:01:49;;;;;;;10.97;3.17;;;;;;;1.58;52.21;94779.63;5095688;28;20212;-63
2022/01/31 05:04:15;;;;;;;7.07;2.80;;;;;;;1.62;52.13;94783.69;5096484;28;20296;-64
2022/01/31 05:06:42;;;;;;;10.50;2.70;;;;;;;1.51;51.71;94781.81;5100342;28;20223;-63
2022/01/31 05:09:10;;;;;;;7.63;2.77;;;;;;;1.45;52.17;94792.59;5095736;28;20229;-64
2022/01/31 05:11:36;;;;;;;5.27;2.20;;;;;;;1.46;51.86;94779.53;5092338;28;20239;-63
2022/01/31 05:14:02;;;;;;;8.10;2.67;;;;;;;1.31;52.61;94776.22;5096466;28;20219;-63
2022/01/31 05:16:28;;;;;;;6.00;2.60;;;;;;;1.51;51.71;94787.00;5098463;28;20220;-63
2022/01/31 05:18:53;;;;;;;6.27;2.50;;;;;;;1.53;51.75;94765.22;5100522;28;20228;-63
2022/01/31 05:21:19;;;;;;;13.47;2.80;;;;;;;1.35;52.48;94774.22;5099250;28;20188;-63
2022/01/31 05:23:47;;;;;;;9.50;2.80;;;;;;;1.39;52.62;94785.22;5099280;28;20254;-62
2022/01/31 05:26:12;;;;;;;4.73;2.37;;;;;;;1.46;52.35;94789.88;5098130;28;20223;-63
2022/01/31 05:28:39;;;;;;;7.47;3.07;;;;;;;1.36;52.48;94781.06;5094743;28;20228;-62
2022/01/31 05:31:06;;;;;;;6.00;2.40;;;;;;;1.38;52.37;94770.59;5091462;28;20216;-61
2022/01/31 05:33:31;;;;;;;8.90;2.20;;;;;;;1.30;52.23;94771.94;5093642;28;20250;-63
2022/01/31 05:35:57;;;;;;;6.97;3.13;;;;;;;1.27;52.48;94777.31;5098035;28;20208;-62
2022/01/31 05:38:22;;;;;;;6.80;2.13;;;;;;;1.26;52.14;94772.25;5094518;28;20235;-62
2022/01/31 05:40:48;;;;;;;8.70;2.70;;;;;;;1.38;52.35;94792.16;5093111;28;20238;-64
2022/01/31 05:43:13;;;;;;;4.83;2.40;;;;;;;1.31;52.24;94778.78;5094863;28;20235;-62
2022/01/31 05:45:39;;;;;;;6.53;2.57;;;;;;;1.32;51.98;94766.66;5092401;28;20211;-62
2022/01/31 05:48:04;;;;;;;5.23;2.80;;;;;;;1.36;52.36;94764.69;5093561;28;20216;-62
2022/01/31 05:50:30;;;;;;;6.93;2.80;;;;;;;1.28;52.43;94755.69;5096402;28;20307;-62
2022/01/31 05:52:56;;;;;;;6.70;2.80;;;;;;;1.24;53.01;94776.72;5099169;28;20228;-62
2022/01/31 05:55:21;;;;;;;6.17;2.53;;;;;;;1.25;52.66;94776.59;5087084;28;20342;-62
2022/01/31 05:57:47;;;;;;;8.57;3.33;;;;;;;1.26;52.55;94773.09;5094817;28;20205;-63
2022/01/31 06:00:14;;;;;;;8.57;2.60;;;;;;;1.26;52.56;94765.31;5099526;28;20211;-62
2022/01/31 06:02:39;;;;;;;10.00;2.60;;;;;;;1.38;52.22;94768.03;5097895;28;20265;-62
2022/01/31 06:05:06;;;;;;;8.53;2.40;;;;;;;1.28;51.84;94772.97;5095422;28;20220;-63
2022/01/31 06:07:31;;;;;;;4.93;2.07;;;;;;;1.31;51.49;94770.19;5095030;28;20215;-63
2022/01/31 06:09:57;;;;;;;9.63;2.70;;;;;;;1.41;51.80;94783.34;5090646;28;20219;-62
2022/01/31 06:12:23;;;;;;;6.87;2.73;;;;;;;1.31;51.21;94791.75;5095560;28;20220;-62
2022/01/31 06:14:48;;;;;;;4.90;2.10;;;;;;;1.38;51.75;94784.38;5094716;28;20258;-63
2022/01/31 06:17:14;;;;;;;6.40;2.50;;;;;;;1.43;51.74;94789.28;5096792;28;20216;-63
2022/01/31 06:19:39;;;;;;;6.77;2.17;;;;;;;1.50;51.62;94793.94;5101086;28;20238;-63
2022/01/31 06:22:05;;;;;;;6.90;2.57;;;;;;;1.59;51.44;94784.72;5098431;28;20281;-63
2022/01/31 06:24:30;;;;;;;7.33;2.87;;;;;;;1.69;51.30;94796.13;5098633;28;20212;-64
2022/01/31 06:26:58;;;;;;;6.33;2.63;;;;;;;1.84;50.63;94786.47;5096181;28;20216;-62
2022/01/31 06:29:23;;;;;;;6.27;2.83;;;;;;;1.73;49.90;94773.41;5097682;28;20232;-64
2022/01/31 06:31:49;;;;;;;6.13;2.70;;;;;;;1.72;50.05;94779.53;5100043;28;20266;-63
2022/01/31 06:34:14;;;;;;;7.53;2.43;;;;;;;1.71;49.72;94770.09;5099661;28;20225;-64
2022/01/31 06:36:40;;;;;;;7.77;2.70;;;;;;;1.60;49.91;94762.22;5096099;28;20207;-62
2022/01/31 06:39:06;;;;;;;6.43;2.80;;;;;;;1.71;49.61;94765.75;5101900;28;20204;-62
2022/01/31 06:41:31;;;;;;;4.93;2.60;;;;;;;1.73;48.85;94766.47;5102923;28;20215;-63
2022/01/31 06:43:57;;;;;;;9.27;3.30;;;;;;;1.70;48.98;94756.31;5100956;28;20228;-62
2022/01/31 06:46:22;;;;;;;6.90;2.50;;;;;;;1.69;48.71;94733.09;5100179;28;20228;-62
2022/01/31 06:48:48;;;;;;;5.60;2.80;;;;;;;1.75;48.83;94743.03;5104024;28;20266;-62
2022/01/31 06:51:13;;;;;;;7.70;2.57;;;;;;;1.82;48.47;94740.84;5098328;28;20205;-64
2022/01/31 06:53:40;;;;;;;7.30;2.47;;;;;;;1.82;48.26;94727.88;5099972;28;20227;-64
2022/01/31 06:56:06;;;;;;;6.20;2.50;;;;;;;1.96;48.17;94740.72;5099462;28;20212;-65
2022/01/31 06:58:31;;;;;;;7.70;2.50;;;;;;;2.03;48.15;94749.72;5096659;28;20259;-64
2022/01/31 07:00:58;;;;;;;6.50;2.00;;;;;;;2.05;47.82;94744.44;5099529;28;20239;-64
2022/01/31 07:03:24;;;;;;;8.67;2.87;;;;;;;1.91;47.50;94748.81;5095772;28;20247;-63
2022/01/31 07:05:50;;;;;;;7.30;2.90;;;;;;;1.92;47.82;94728.91;5102285;28;20219;-62
2022/01/31 07:08:16;;;;;;;6.80;2.70;;;;;;;1.99;47.66;94741.34;5100387;28;20219;-63
2022/01/31 07:10:50;;;;;;;7.97;2.43;;;;;;;2.15;47.19;94746.28;5096711;28;20222;-62
2022/01/31 07:13:34;;;;;;;8.30;2.60;;;;;;;2.16;46.91;94729.78;5097346;28;20228;-64
2022/01/31 07:16:00;;;;;;;6.03;2.60;;;;;;;2.28;46.14;94729.88;5094514;28;20231;-63
2022/01/31 07:18:26;;;;;;;7.33;2.80;;;;;;;2.38;46.33;94725.69;5096544;28;20216;-64
2022/01/31 07:20:53;;;;;;;6.73;2.40;;;;;;;2.41;45.95;94738.44;5101263;28;20294;-64
2022/01/31 07:23:37;;;;;;;7.27;2.53;;;;;;;2.50;45.72;94739.53;5099416;28;20222;-63
2022/01/31 07:26:03;;;;;;;6.70;2.60;;;;;;;2.47;45.14;94719.81;5095297;28;20223;-64
2022/01/31 07:28:28;;;;;;;9.63;3.30;;;;;;;2.43;44.83;94733.94;5104056;28;20232;-63
2022/01/31 07:30:54;;;;;;;6.67;2.50;;;;;;;2.49;45.08;94727.53;5097012;28;20230;-63
2022/01/31 07:33:20;;;;;;;8.90;2.93;;;;;;;2.47;44.91;94709.44;5103005;28;20223;-63
2022/01/31 07:35:49;;;;;;;10.53;2.83;;;;;;;2.49;44.85;94697.19;5100119;28;20228;-64
2022/01/31 07:38:16;;;;;;;6.50;2.60;;;;;;;2.43;44.86;94682.03;5095302;28;20265;-63
2022/01/31 07:40:43;;;;;;;9.67;3.30;;;;;;;2.53;44.70;94700.38;5095692;28;20218;-62
2022/01/31 07:43:08;;;;;;;9.17;3.03;;;;;;;2.45;44.73;94705.31;5090724;28;20223;-63
2022/01/31 07:45:34;;;;;;;6.30;2.60;;;;;;;2.54;44.81;94695.09;5092486;28;20208;-63
2022/01/31 07:47:59;;;;;;;6.60;2.20;;;;;;;2.50;44.22;94683.28;5098272;28;20209;-64
2022/01/31 07:50:25;;;;;;;9.30;3.13;;;;;;;2.48;44.22;94689.50;5099621;28;20250;-63
2022/01/31 07:52:51;;;;;;;11.87;3.30;;;;;;;2.48;44.46;94694.69;5096226;28;20224;-64
2022/01/31 07:55:17;;;;;;;7.87;2.80;;;;;;;2.63;44.45;94689.22;5099933;28;20276;-63
2022/01/31 07:57:45;;;;;;;7.73;2.90;;;;;;;2.77;44.02;94692.59;5097867;28;20211;-63
2022/01/31 08:00:11;;;;;;;9.17;3.00;;;;;;;2.84;43.86;94694.63;5098658;28;20271;-63
2022/01/31 08:02:37;;;;;;;9.40;2.80;;;;;;;2.74;43.40;94679.84;5100570;28;20211;-63
2022/01/31 08:05:03;;;;;;;9.13;2.70;;;;;;;2.83;43.19;94674.81;5084604;28;20250;-65
2022/01/31 08:07:28;;;;;;;9.87;2.47;;;;;;;3.03;41.48;94685.47;5096716;28;20231;-64
2022/01/31 08:09:54;;;;;;;10.00;2.53;;;;;;;2.91;41.84;94696.75;5099947;28;20307;-64
2022/01/31 08:12:19;;;;;;;8.23;2.70;;;;;;;2.76;42.20;94698.72;5096413;28;20212;-65
2022/01/31 08:14:46;;;;;;;10.67;2.57;;;;;;;2.81;42.60;94696.63;5097039;28;20220;-64
2022/01/31 08:17:12;;;;;;;16.17;2.90;;;;;;;2.87;42.37;94688.38;5097459;28;20203;-62
2022/01/31 08:19:37;;;;;;;5.30;2.10;;;;;;;2.93;42.39;94690.50;5101393;28;20226;-62
2022/01/31 08:22:03;;;;;;;7.03;2.37;;;;;;;2.96;41.94;94668.69;5098874;28;20240;-65
2022/01/31 08:24:28;;;;;;;9.37;3.03;;;;;;;3.02;41.97;94676.84;5097841;28;20279;-66
2022/01/31 08:26:54;;;;;;;5.67;2.50;;;;;;;2.93;42.15;94697.47;5096382;28;20204;-66
2022/01/31 08:29:24;;;;;;;9.70;3.00;;;;;;;2.84;42.53;94673.03;5096458;28;20227;-66
2022/01/31 08:31:52;;;;;;;9.60;3.10;;;;;;;3.03;42.60;94677.69;5095064;28;20275;-63
2022/01/31 08:35:47;;;;;;;6.93;2.70;;;;;;;3.17;42.41;94674.88;5099618;28;20287;-65
2022/01/31 08:37:14;;;;;;;9.00;3.17;;;;;;;3.33;42.33;94665.94;5098297;28;20232;-64
2022/01/31 08:39:40;;;;;;;9.70;3.83;;;;;;;3.42;41.99;94673.84;5098978;28;20216;-66
2022/01/31 08:42:06;;;;;;;17.30;3.40;;;;;;;3.54;41.10;94683.31;5095580;28;20210;-63
2022/01/31 08:44:32;;;;;;;7.90;3.20;;;;;;;3.47;41.37;94682.09;5095899;28;20247;-64
2022/01/31 08:46:57;;;;;;;9.93;3.50;;;;;;;3.52;41.36;94687.78;5097533;28;20231;-65
2022/01/31 08:49:23;;;;;;;8.17;2.30;;;;;;;3.55;40.13;94699.72;5093696;28;20225;-64
2022/01/31 08:51:49;;;;;;;6.03;2.53;;;;;;;3.59;40.14;94693.34;5100973;28;20235;-65
2022/01/31 08:54:15;;;;;;;8.50;3.17;;;;;;;3.71;39.81;94684.59;5096695;28;20196;-65
2022/01/31 08:56:44;;;;;;;6.30;2.63;;;;;;;3.72;40.03;94685.44;5091346;28;20224;-66
2022/01/31 08:59:18;;;;;;;7.50;2.77;;;;;;;3.74;39.91;94689.59;5094606;28;20224;-64
2022/01/31 09:02:03;;;;;;;6.20;2.37;;;;;;;3.87;39.77;94688.63;5108597;28;20241;-65
2022/01/31 09:04:34;;;;;;;11.93;3.33;;;;;;;3.84;39.83;94687.09;5093434;28;20228;-64
2022/01/31 09:07:00;;;;;;;9.90;2.87;;;;;;;3.81;40.22;94665.69;5091522;28;20231;-65
2022/01/31 09:09:26;;;;;;;5.73;2.80;;;;;;;3.82;39.52;94670.75;5103046;28;20229;-65
2022/01/31 09:11:52;;;;;;;8.40;3.23;;;;;;;3.87;39.59;94652.22;5096703;28;20295;-65
2022/01/31 09:14:17;;;;;;;7.83;3.03;;;;;;;4.08;39.77;94660.94;5091527;28;20230;-65
2022/01/31 09:16:43;;;;;;;9.17;2.90;;;;;;;4.19;39.53;94650.50;5093330;28;20287;-65
2022/01/31 09:19:09;;;;;;;8.00;3.07;;;;;;;4.41;39.60;94640.97;5096874;28;20224;-66
2022/01/31 09:21:35;;;;;;;10.00;3.30;;;;;;;4.51;38.86;94639.28;5095212;28;20212;-65
2022/01/31 09:24:01;;;;;;;5.77;2.97;;;;;;;4.64;38.56;94633.91;5094387;28;20199;-64
2022/01/31 09:26:27;;;;;;;9.23;2.67;;;;;;;4.73;38.78;94625.34;5093217;28;20230;-63
2022/01/31 09:28:54;;;;;;;8.03;2.27;;;;;;;4.64;38.31;94628.69;5101416;28;20215;-64
2022/01/31 09:31:20;;;;;;;8.17;2.70;;;;;;;4.55;37.69;94616.44;5089566;28;20228;-65
2022/01/31 09:33:47;;;;;;;9.20;2.70;;;;;;;4.62;38.03;94617.56;5098206;28;20200;-64
2022/01/31 09:36:12;;;;;;;8.37;3.63;;;;;;;4.60;38.14;94612.50;5089861;28;20329;-64
2022/01/31 09:38:40;;;;;;;7.43;2.93;;;;;;;4.70;37.79;94612.56;5090037;28;20220;-65
2022/01/31 09:41:08;;;;;;;7.20;2.97;;;;;;;4.84;38.09;94601.84;5093325;28;20216;-65
2022/01/31 09:48:45;;;;;;;10.27;3.90;;;;;;;5.08;37.10;94595.53;5097698;28;20250;-66
2022/01/31 09:51:19;;;;;;;6.60;3.37;;;;;;;5.08;37.25;94590.34;5095675;28;20212;-64
2022/01/31 09:53:50;;;;;;;8.50;2.90;;;;;;;5.41;36.17;94591.03;5097287;28;20287;-64
2022/01/31 09:56:23;;;;;;;9.17;3.80;;;;;;;5.82;35.66;94591.84;5099027;28;20263;-63
2022/01/31 09:58:51;;;;;;;8.03;3.37;;;;;;;5.69;34.82;94585.13;5094915;28;20224;-64
2022/01/31 10:01:31;;;;;;;5.33;2.10;;;;;;;5.77;34.03;94581.81;5095388;28;20287;-63
2022/01/31 10:03:58;;;;;;;6.07;2.80;;;;;;;5.71;34.12;94577.13;5092682;28;20239;-63
2022/01/31 10:06:37;;;;;;;6.60;3.00;;;;;;;5.74;34.94;94577.69;5093173;28;20197;-62
2022/01/31 10:09:07;;;;;;;5.00;1.90;;;;;;;5.83;33.60;94562.22;5095012;28;20258;-63
2022/01/31 10:11:43;;;;;;;7.20;2.40;;;;;;;5.34;34.19;94556.00;5094296;28;20258;-64
2022/01/31 10:17:10;;;;;;;5.10;2.33;;;;;;;5.58;35.01;94540.84;5089420;28;20243;-64
2022/01/31 10:19:44;;;;;;;6.17;2.00;;;;;;;5.20;34.94;94518.91;5097562;28;20223;-65
2022/01/31 10:22:12;;;;;;;9.93;2.77;;;;;;;5.12;35.50;94507.50;5095118;28;20241;-64
2022/01/31 10:24:41;;;;;;;10.33;2.80;;;;;;;5.23;35.44;94505.59;5096371;28;20284;-63
2022/01/31 10:27:15;;;;;;;5.60;2.20;;;;;;;5.29;34.42;94493.81;5093904;28;20212;-62
2022/01/31 10:29:43;;;;;;;9.30;2.37;;;;;;;5.62;34.78;94499.69;5094291;28;20246;-61
2022/01/31 10:32:27;;;;;;;5.77;2.10;;;;;;;5.97;34.06;94483.56;5090197;28;20220;-63
2022/01/31 10:34:56;;;;;;;7.90;3.00;;;;;;;6.05;33.81;94486.31;5094692;28;20227;-63
2022/01/31 10:37:23;;;;;;;6.87;2.20;;;;;;;6.12;33.20;94483.97;5092081;28;20217;-63
2022/01/31 10:45:48;;;;;;;5.13;2.17;;;;;;;6.12;32.54;94476.13;5094244;28;20219;-65
2022/01/31 10:52:05;;;;;;;6.57;2.00;;;;;;;6.37;32.43;94444.25;5093783;28;20281;-60
2022/01/31 10:54:26;;;;;;;6.17;1.90;;;;;;;6.27;31.87;94432.16;5087585;28;20258;-65
2022/01/31 10:56:59;;;;;;;5.67;2.17;;;;;;;6.21;32.52;94433.53;5093380;28;20251;-65
2022/01/31 10:59:29;;;;;;;9.00;2.20;;;;;;;6.11;32.26;94409.25;5095890;28;20228;-64
2022/01/31 11:01:57;;;;;;;4.93;1.73;;;;;;;6.42;31.75;94409.88;5090140;28;20220;-64
2022/01/31 11:04:23;;;;;;;5.57;1.90;;;;;;;6.58;31.77;94401.44;5083630;28;20223;-64
2022/01/31 11:06:58;;;;;;;4.07;2.13;;;;;;;7.06;31.10;94410.88;5090741;28;20259;-65
2022/01/31 11:09:23;;;;;;;4.23;2.00;;;;;;;6.63;30.79;94394.81;5097172;28;20204;-65
2022/01/31 11:11:50;;;;;;;6.57;2.67;;;;;;;6.87;31.31;94406.56;5092394;28;20215;-65
2022/01/31 11:14:17;;;;;;;5.00;1.83;;;;;;;7.23;30.49;94401.44;5101540;28;20215;-65
2022/01/31 11:16:48;;;;;;;4.00;2.10;;;;;;;7.48;29.71;94390.28;5097914;28;20212;-65
2022/01/31 11:19:17;;;;;;;5.20;2.03;;;;;;;7.41;29.89;94385.78;5102672;28;20231;-64
2022/01/31 11:21:45;;;;;;;6.63;2.67;;;;;;;7.57;29.84;94395.59;5093413;28;20208;-65
2022/01/31 11:24:25;;;;;;;4.93;2.50;;;;;;;7.67;29.56;94372.75;5097800;28;20204;-64
2022/01/31 11:27:02;;;;;;;4.43;1.93;;;;;;;7.84;30.23;94374.56;5096802;28;20220;-62
2022/01/31 11:29:31;;;;;;;6.10;2.20;;;;;;;8.20;29.06;94387.59;5096969;28;20224;-64
2022/01/31 11:31:58;;;;;;;6.90;1.83;;;;;;;8.49;27.22;94374.22;5100952;28;20230;-65
2022/01/31 11:34:25;;;;;;;3.77;1.80;;;;;;;8.31;27.63;94355.09;5098163;28;20229;-65
2022/01/31 11:36:51;;;;;;;6.33;2.73;;;;;;;8.52;27.70;94360.00;5090835;28;20216;-64
2022/01/31 11:39:17;;;;;;;5.37;2.00;;;;;;;8.85;26.97;94355.75;5095926;28;20201;-64
2022/01/31 11:42:01;;;;;;;6.33;2.00;;;;;;;9.05;26.95;94351.06;5095175;28;20273;-63
2022/01/31 11:44:45;;;;;;;4.87;2.10;;;;;;;9.05;26.40;94356.31;5101273;28;20251;-63
2022/01/31 11:47:11;;;;;;;6.73;2.20;;;;;;;9.01;26.13;94334.84;5100298;28;20203;-64
2022/01/31 11:49:56;;;;;;;4.40;1.53;;;;;;;8.86;26.10;94338.22;5100618;28;20229;-64
2022/01/31 11:52:23;;;;;;;4.97;1.70;;;;;;;9.09;26.53;94315.69;5097168;28;20287;-63
2022/01/31 11:54:52;;;;;;;4.23;1.90;;;;;;;9.24;26.52;94303.56;5098194;28;20227;-62
2022/01/31 11:57:26;;;;;;;9.90;1.77;;;;;;;9.36;26.22;94300.66;5103581;28;20196;-62
2022/01/31 11:59:57;;;;;;;3.20;1.77;;;;;;;9.34;25.08;94298.19;5096239;28;20215;-62